Aviation Digital Data Service (ADDS)

Output produced by METARs form (0236 UTC 22 July 2017)
found at http://www.aviationweather.gov/adds/metars/
 
UBBB 220230Z 35008KT CAVOK 27/22 Q1011 R88/D NOSIG
TAF UBBB 211703Z 2118/2218 34008KT CAVOK TX35/2211Z TN22/2202Z 
     TEMPO 2118/2206 33014KT 6000 SCT015 
     BECMG 2206/2208 04010KT
       
UBBG 220230Z 23006KT 9999 FEW100 23/13 Q1012 R30/CLRD// NOSIG
TAF UBBG 212300Z 2200/2224 VRB04KT 9999 FEW040 SCT100 TX36/2212Z TN24/2202Z 
     BECMG 2208/2210 08014KT
       
UBBL 220200Z 00000KT 9999 NSC 19/14 Q1011 R33/CLRD// NOSIG RMK MT OP
TAF UBBL 211706Z 2118/2218 VRB04KT 8000 NSC TX34/2211Z TN18/2202Z 
     TEMPO 2118/2204 SCT020 SCT100 
     BECMG 2206/2208 13006KT
       
UBBN 220230Z 13012KT 9999 FEW100 27/05 Q1011 R14R/CLRD// NOSIG RMK MT OP QFE684
TAF UBBN 212302Z 2200/2224 07010KT 9999 FEW050 SCT100 TX40/2211Z TN24/2202Z 
     TEMPO 2200/2212 14016G26KT
       
UBBQ 220200Z 00000KT 9999 NSC 15/13 Q1013 R16/CLRD// NOSIG RMK MT OP
TAF UBBQ 211704Z 2118/2218 VRB04KT 9999 NSC TX36/2211Z TN16/2202Z 
     TEMPO 2118/2206 SCT030 SCT100 
     BECMG 2206/2208 16008KT
       
UBBY 220200Z 08004KT 9999 FEW100 22/10 Q1016 R33/////// NOSIG RMK MT OP
TAF UBBY 220200Z 2203/2212 VRB04KT 9999 FEW050 SCT100
       
UBBB 220230Z 35008KT CAVOK 27/22 Q1011 R88/D NOSIG
TAF UBBB 211703Z 2118/2218 34008KT CAVOK TX35/2211Z TN22/2202Z 
     TEMPO 2118/2206 33014KT 6000 SCT015 
     BECMG 2206/2208 04010KT
       
UBBG 220230Z 23006KT 9999 FEW100 23/13 Q1012 R30/CLRD// NOSIG
TAF UBBG 212300Z 2200/2224 VRB04KT 9999 FEW040 SCT100 TX36/2212Z TN24/2202Z 
     BECMG 2208/2210 08014KT